Eastlake, CO (80614)

09:21 AM MST del 21 novembre 2014 (GMT -0700)
Northglenn | Change Station
CLOSE
Current Station
Stazione meteo personale
Location: Northglenn, CO
Altitudine: 5344 ft
Stazioni meteo nelle vicinanze

Alt. 5344 ft 39.91 °N, 104.97 °W | Updated 5 minutes ago

Sereno
Sereno
43.7 °F
Sembra 41 °F
N
4.7
Vento Variabile Vento da SE

Oggi
Massima -- | Minima -- °F
--% Possibilità di precip.
Ieri
Massima -- | Minima -- °F
Precip. -- in
6:51 AM 4:39 PM
Luna calante, 1% visible
Pressione 29.96 in
Visibilità 10.0 miglia
Nuvole Sereno
Raffreddamento del vento 41 °F
Punto di rugiada 25 °F
Umidità 48%
Piovosità 0.00 in
Spessore del manto nevoso Non disponibile.
Raggi UV 2 fuori da 12
Polline .10 fuori da 12
Qualità dell'aria Non disponibile.
Flu Activity Non disponibile.
METAR KEIK 211615Z AUTO 00000KT 10SM CLR 08/M03 A2996 RMK AO2 T00781029

More Conditions Fewer Conditions

Pressione 29.96 in
Visibilità 10.0 miglia
Nuvole Sereno
Raffreddamento del vento 41 °F
Punto di rugiada 25 °F
Umidità 48%
Piovosità 0.00 in
Spessore del manto nevoso Non disponibile.
Raggi UV 2 fuori da 12
Polline .10 fuori da 12
Qualità dell'aria Non disponibile.
Flu Activity Non disponibile.
METAR KEIK 211615Z AUTO 00000KT 10SM CLR 08/M03 A2996 RMK AO2 T00781029

More Conditions Fewer Conditions

10-Day Weather Forecast

Almanac

Astronomia

Nov. 21, 2014 Alba Tramonto
Ora attuale
Crepuscolo civile
Crepuscolo nautico
Crepuscolo astronomico
Luna
Estensione della luce visibile
Lunghezza del giorno
Tomorrow will be .
, % of the Moon is Illuminated

Gli estremi di oggi

State Highs State Lows

Community

WunderPhotos

Upload Photos

1,772,682 foto caricate!

WunderBlogs® & News

Nearby

Qualità dell'aria

  Qualità dell'aria Indice AQ Inquinante
Not available.

Profondità neve

Stazione Profondità Altitudine

Attività sismica

Città  Distanza Mag. Data & Ora
Minimo Magnitudo Mostrato è 2.5.

Temperature delle acque costiere

Località Temperatura

Stazioni meteo nelle vicinanze